Time;durP1;ratioP1;P1;durP2;ratioP2;P2;SDS_P1;SDS_P2;PMS_P1;PMS_P2;Temp;Humidity;BMP_temperature;BMP_pressure;BME280_temperature;BME280_humidity;BME280_pressure;Samples;Min_cycle;Max_cycle;Signal;HPM_P1;HPM_P2
2022/10/06 00:01:42;;;;;;;3.70;1.90;;;;;;;;;;5051651;28;20033;-74
2022/10/06 00:04:07;;;;;;;6.77;2.43;;;;;;;;;;5053556;28;20279;-73
2022/10/06 00:06:32;;;;;;;7.97;2.30;;;;;;;;;;5020530;28;20363;-74
2022/10/06 00:08:58;;;;;;;5.18;1.92;;;;;;;;;;5041845;28;20350;-75
2022/10/06 00:11:23;;;;;;;6.20;2.63;;;;;;;;;;5071974;28;20052;-74
2022/10/06 00:13:48;;;;;;;9.75;2.58;;;;;;;;;;5053218;28;20353;-75
2022/10/06 00:16:16;;;;;;;5.05;1.95;;;;;;;;;;5046317;28;20029;-74
2022/10/06 00:18:41;;;;;;;6.15;2.30;;;;;;;;;;5054577;28;20498;-73
2022/10/06 00:21:07;;;;;;;6.55;2.35;;;;;;;;;;5067197;28;20060;-72
2022/10/06 00:23:32;;;;;;;7.85;2.38;;;;;;;;;;5033845;28;20013;-74
2022/10/06 00:25:57;;;;;;;11.65;2.20;;;;;;;;;;5067739;28;20120;-74
2022/10/06 00:28:23;;;;;;;6.25;2.35;;;;;;;;;;5052611;28;20025;-74
2022/10/06 00:30:49;;;;;;;4.80;2.10;;;;;;;;;;5051931;28;20383;-75
2022/10/06 00:33:16;;;;;;;14.32;2.65;;;;;;;;;;5034800;28;20075;-74
2022/10/06 00:35:42;;;;;;;12.43;2.55;;;;;;;;;;5048772;28;20017;-72
2022/10/06 00:38:08;;;;;;;9.55;2.63;;;;;;;;;;5035005;28;20039;-74
2022/10/06 00:40:34;;;;;;;7.75;2.33;;;;;;;;;;5052671;28;20021;-73
2022/10/06 00:43:00;;;;;;;6.72;2.20;;;;;;;;;;5030058;28;20032;-74
2022/10/06 00:45:38;;;;;;;9.90;2.97;;;;;;;;;;5032052;28;20056;-74
2022/10/06 00:48:13;;;;;;;11.38;2.15;;;;;;;;;;5066548;28;20033;-73
2022/10/06 00:50:39;;;;;;;13.57;2.15;;;;;;;;;;5031641;28;20031;-73
2022/10/06 00:53:04;;;;;;;5.75;2.15;;;;;;;;;;5033781;28;20108;-73
2022/10/06 00:55:30;;;;;;;4.82;2.03;;;;;;;;;;5032982;28;20017;-72
2022/10/06 00:57:55;;;;;;;15.38;3.00;;;;;;;;;;5044566;28;20873;-74
2022/10/06 01:00:20;;;;;;;6.72;2.75;;;;;;;;;;5046703;28;20079;-76
2022/10/06 01:02:57;;;;;;;8.27;2.45;;;;;;;;;;5051607;28;20083;-74
2022/10/06 01:05:26;;;;;;;8.45;2.53;;;;;;;;;;5052312;28;20383;-74
2022/10/06 01:07:51;;;;;;;7.72;2.53;;;;;;;;;;5051826;28;20021;-74
2022/10/06 01:10:16;;;;;;;8.43;2.70;;;;;;;;;;5051733;28;20029;-74
2022/10/06 01:12:42;;;;;;;10.13;2.78;;;;;;;;;;5050449;28;20020;-74
2022/10/06 01:15:07;;;;;;;9.73;2.70;;;;;;;;;;5023471;28;20033;-74
2022/10/06 01:17:42;;;;;;;8.77;2.70;;;;;;;;;;5043665;28;20295;-75
2022/10/06 01:20:09;;;;;;;13.60;3.28;;;;;;;;;;5051432;28;20542;-74
2022/10/06 01:22:42;;;;;;;6.40;2.80;;;;;;;;;;5050972;28;20033;-75
2022/10/06 01:25:08;;;;;;;9.40;2.55;;;;;;;;;;5051033;28;20020;-74
2022/10/06 01:27:34;;;;;;;8.13;2.45;;;;;;;;;;5051233;28;20111;-74
2022/10/06 01:30:00;;;;;;;9.15;3.20;;;;;;;;;;5033163;28;20539;-74
2022/10/06 01:32:30;;;;;;;9.10;2.85;;;;;;;;;;5033814;28;20112;-73
2022/10/06 01:34:55;;;;;;;11.65;2.55;;;;;;;;;;5048365;28;20013;-73
2022/10/06 01:37:20;;;;;;;7.80;2.87;;;;;;;;;;5049983;28;20035;-74
2022/10/06 01:39:46;;;;;;;13.63;3.07;;;;;;;;;;5023580;28;20280;-73
2022/10/06 01:42:11;;;;;;;8.30;2.60;;;;;;;;;;5042775;28;20311;-73
2022/10/06 01:44:36;;;;;;;13.50;3.33;;;;;;;;;;5050624;28;20080;-73
2022/10/06 01:47:05;;;;;;;5.88;2.65;;;;;;;;;;5051142;28;20272;-74
2022/10/06 01:49:30;;;;;;;6.10;2.28;;;;;;;;;;5050986;28;20039;-74
2022/10/06 01:51:56;;;;;;;10.52;3.53;;;;;;;;;;5051557;28;20367;-74
2022/10/06 01:54:21;;;;;;;10.50;2.83;;;;;;;;;;5047585;28;20028;-74
2022/10/06 01:56:47;;;;;;;10.40;3.28;;;;;;;;;;5047987;28;20018;-74
2022/10/06 01:59:12;;;;;;;11.07;2.55;;;;;;;;;;5059005;28;20020;-74
2022/10/06 02:01:37;;;;;;;13.43;2.40;;;;;;;;;;5072990;28;20013;-74
2022/10/06 02:04:02;;;;;;;7.53;2.83;;;;;;;;;;5061562;28;20275;-74
2022/10/06 02:06:28;;;;;;;6.53;2.50;;;;;;;;;;5050128;28;20321;-74
2022/10/06 02:08:53;;;;;;;11.43;3.03;;;;;;;;;;5062093;28;20279;-74
2022/10/06 02:11:18;;;;;;;7.07;2.92;;;;;;;;;;5050388;28;20113;-74
2022/10/06 02:13:44;;;;;;;12.95;3.72;;;;;;;;;;5064631;28;20524;-74
2022/10/06 02:16:12;;;;;;;7.15;2.42;;;;;;;;;;5058742;28;20024;-74
2022/10/06 02:18:37;;;;;;;9.93;2.90;;;;;;;;;;5018100;28;20076;-74
2022/10/06 02:21:03;;;;;;;6.55;2.40;;;;;;;;;;5068050;28;20742;-74
2022/10/06 02:23:29;;;;;;;12.35;2.92;;;;;;;;;;5054542;28;20104;-74
2022/10/06 02:25:58;;;;;;;7.68;2.95;;;;;;;;;;5031932;28;20017;-74
2022/10/06 02:28:24;;;;;;;9.48;2.65;;;;;;;;;;5041378;28;20048;-74
2022/10/06 02:30:49;;;;;;;11.55;3.10;;;;;;;;;;5049032;28;20470;-74
2022/10/06 02:33:14;;;;;;;10.60;3.17;;;;;;;;;;5050116;28;20017;-74
2022/10/06 02:35:41;;;;;;;7.77;2.73;;;;;;;;;;5046811;28;20280;-74
2022/10/06 02:38:06;;;;;;;11.38;3.17;;;;;;;;;;5050951;28;20299;-74
2022/10/06 02:40:32;;;;;;;12.48;3.58;;;;;;;;;;5048713;28;20048;-74
2022/10/06 02:42:57;;;;;;;8.47;2.77;;;;;;;;;;5049259;28;20135;-75
2022/10/06 02:45:22;;;;;;;8.80;2.65;;;;;;;;;;5049493;28;20278;-74
2022/10/06 02:47:48;;;;;;;11.73;2.60;;;;;;;;;;5031275;28;20044;-75
2022/10/06 02:50:13;;;;;;;12.70;3.05;;;;;;;;;;5050487;28;20773;-77
2022/10/06 02:52:41;;;;;;;10.18;3.30;;;;;;;;;;5065353;28;20010;-75
2022/10/06 02:55:07;;;;;;;7.47;2.53;;;;;;;;;;5031668;28;20032;-74
2022/10/06 02:57:32;;;;;;;13.52;3.63;;;;;;;;;;5048088;28;20498;-74
2022/10/06 02:59:57;;;;;;;6.70;3.40;;;;;;;;;;5047517;28;20521;-75
2022/10/06 03:02:23;;;;;;;11.50;3.53;;;;;;;;;;5049605;28;20120;-74
2022/10/06 03:04:48;;;;;;;10.80;4.13;;;;;;;;;;5032292;28;20014;-74
2022/10/06 03:07:14;;;;;;;9.05;3.08;;;;;;;;;;5050017;28;20271;-75
2022/10/06 03:09:39;;;;;;;9.07;2.75;;;;;;;;;;5049451;28;20017;-74
2022/10/06 03:12:04;;;;;;;9.15;2.60;;;;;;;;;;5022706;28;20017;-74
2022/10/06 03:14:29;;;;;;;6.37;2.50;;;;;;;;;;5031780;28;20535;-74
2022/10/06 03:16:55;;;;;;;12.20;3.13;;;;;;;;;;5024113;28;20786;-73
2022/10/06 03:19:21;;;;;;;12.38;3.72;;;;;;;;;;5043022;28;20780;-74
2022/10/06 03:21:46;;;;;;;7.82;3.05;;;;;;;;;;5048487;28;20428;-74
2022/10/06 03:24:11;;;;;;;13.17;3.30;;;;;;;;;;5048478;28;20025;-74
2022/10/06 03:26:38;;;;;;;10.20;3.95;;;;;;;;;;5048339;28;20848;-74
2022/10/06 03:29:04;;;;;;;25.20;3.97;;;;;;;;;;5049445;28;20302;-73
2022/10/06 03:31:30;;;;;;;16.25;4.05;;;;;;;;;;5030869;28;20025;-73
2022/10/06 03:33:55;;;;;;;12.32;4.35;;;;;;;;;;5022757;28;20100;-74
2022/10/06 03:36:22;;;;;;;10.85;2.92;;;;;;;;;;5041972;28;20035;-73
2022/10/06 03:38:47;;;;;;;10.27;3.20;;;;;;;;;;5020068;28;20021;-74
2022/10/06 03:41:14;;;;;;;12.35;3.72;;;;;;;;;;5037795;28;20561;-74
2022/10/06 03:43:41;;;;;;;10.63;3.85;;;;;;;;;;5046587;28;20013;-74
2022/10/06 03:46:06;;;;;;;9.13;3.17;;;;;;;;;;5048878;28;20092;-73
2022/10/06 03:48:32;;;;;;;14.05;3.55;;;;;;;;;;5048326;28;20104;-73
2022/10/06 03:50:59;;;;;;;10.20;2.78;;;;;;;;;;5045930;28;20056;-74
2022/10/06 03:53:27;;;;;;;13.25;4.00;;;;;;;;;;5048473;28;20017;-74
2022/10/06 03:55:59;;;;;;;11.95;4.38;;;;;;;;;;5045583;28;20021;-73
2022/10/06 03:58:25;;;;;;;12.43;3.95;;;;;;;;;;5068512;28;20470;-73
2022/10/06 04:00:57;;;;;;;10.45;3.15;;;;;;;;;;5066626;28;20078;-74
2022/10/06 04:03:22;;;;;;;13.75;3.33;;;;;;;;;;5049122;28;20037;-74
2022/10/06 04:05:51;;;;;;;18.57;4.43;;;;;;;;;;5061558;28;20034;-73
2022/10/06 04:08:16;;;;;;;14.45;3.47;;;;;;;;;;5048848;28;20021;-73
2022/10/06 04:10:42;;;;;;;8.98;3.65;;;;;;;;;;5048375;28;20035;-73
2022/10/06 04:13:07;;;;;;;8.87;3.27;;;;;;;;;;5047075;28;20384;-73
2022/10/06 04:15:32;;;;;;;15.30;4.30;;;;;;;;;;5047420;28;20774;-73
2022/10/06 04:17:57;;;;;;;16.60;3.63;;;;;;;;;;5026070;28;20271;-73
2022/10/06 04:20:22;;;;;;;9.40;3.83;;;;;;;;;;5063879;28;20311;-73
2022/10/06 04:22:48;;;;;;;12.43;3.90;;;;;;;;;;5048493;28;20295;-73
2022/10/06 04:25:13;;;;;;;8.25;3.20;;;;;;;;;;5049137;28;20275;-73
2022/10/06 04:27:38;;;;;;;17.95;3.55;;;;;;;;;;5048413;28;20060;-73
2022/10/06 04:30:04;;;;;;;12.03;3.77;;;;;;;;;;5048044;28;20754;-73
2022/10/06 04:32:29;;;;;;;11.07;3.55;;;;;;;;;;5048713;28;20621;-73
2022/10/06 04:34:54;;;;;;;16.70;4.53;;;;;;;;;;5063424;28;20025;-74
2022/10/06 04:37:19;;;;;;;13.77;4.03;;;;;;;;;;5030305;28;20327;-73
2022/10/06 04:39:45;;;;;;;14.98;3.08;;;;;;;;;;5051389;28;20271;-73
2022/10/06 04:42:10;;;;;;;12.27;3.97;;;;;;;;;;5051344;28;20029;-74
2022/10/06 04:44:35;;;;;;;9.57;3.77;;;;;;;;;;5052840;28;20049;-74
2022/10/06 04:47:00;;;;;;;26.35;4.07;;;;;;;;;;5052442;28;20374;-73
2022/10/06 04:49:26;;;;;;;16.77;5.38;;;;;;;;;;5023460;28;20017;-75
2022/10/06 04:51:51;;;;;;;11.23;4.68;;;;;;;;;;5021456;28;20103;-74
2022/10/06 04:54:17;;;;;;;26.50;4.33;;;;;;;;;;5055618;28;20037;-74
2022/10/06 04:56:42;;;;;;;9.48;3.33;;;;;;;;;;5058703;28;20279;-74
2022/10/06 04:59:08;;;;;;;15.60;5.23;;;;;;;;;;5064170;28;20075;-73
2022/10/06 05:01:34;;;;;;;20.52;4.10;;;;;;;;;;5052267;28;20283;-74
2022/10/06 05:04:00;;;;;;;12.27;3.90;;;;;;;;;;5043882;28;20961;-74
2022/10/06 05:06:26;;;;;;;9.63;3.28;;;;;;;;;;5051475;28;20017;-74
2022/10/06 05:08:53;;;;;;;15.10;3.90;;;;;;;;;;5051168;28;20100;-73
2022/10/06 05:11:18;;;;;;;12.32;4.63;;;;;;;;;;5049908;28;20029;-74
2022/10/06 05:13:44;;;;;;;13.68;5.00;;;;;;;;;;5051761;28;20035;-74
2022/10/06 05:16:11;;;;;;;11.98;3.85;;;;;;;;;;5041901;28;20048;-74
2022/10/06 05:18:36;;;;;;;14.07;3.80;;;;;;;;;;5051388;28;20357;-74
2022/10/06 05:21:06;;;;;;;12.95;3.78;;;;;;;;;;5050995;28;20039;-73
2022/10/06 05:23:32;;;;;;;12.40;4.20;;;;;;;;;;5066263;28;20021;-73
2022/10/06 05:25:58;;;;;;;16.02;4.60;;;;;;;;;;5031603;28;20112;-73
2022/10/06 05:28:24;;;;;;;12.95;4.32;;;;;;;;;;5050337;28;20020;-73
2022/10/06 05:30:56;;;;;;;9.25;3.25;;;;;;;;;;5065782;28;20028;-73
2022/10/06 05:33:23;;;;;;;11.10;4.28;;;;;;;;;;5050562;28;20040;-73
2022/10/06 05:35:52;;;;;;;14.18;3.95;;;;;;;;;;5051096;28;20025;-73
2022/10/06 05:38:17;;;;;;;15.98;4.35;;;;;;;;;;5051985;28;20134;-73
2022/10/06 05:40:42;;;;;;;8.27;3.67;;;;;;;;;;5051645;28;20456;-73
2022/10/06 05:43:07;;;;;;;10.10;4.07;;;;;;;;;;5050832;28;20309;-72
2022/10/06 05:45:33;;;;;;;7.83;3.43;;;;;;;;;;5047459;28;20337;-73
2022/10/06 05:47:58;;;;;;;21.17;5.10;;;;;;;;;;5010624;28;20342;-72
2022/10/06 05:50:23;;;;;;;13.87;4.87;;;;;;;;;;5010196;28;20275;-72
2022/10/06 05:52:48;;;;;;;11.23;3.92;;;;;;;;;;5018847;28;20374;-72
2022/10/06 05:55:14;;;;;;;10.63;3.75;;;;;;;;;;5026106;28;20889;-72
2022/10/06 05:57:39;;;;;;;12.88;4.18;;;;;;;;;;5022182;28;20871;-72
2022/10/06 06:00:05;;;;;;;13.90;5.05;;;;;;;;;;5011618;28;20057;-72
2022/10/06 06:02:30;;;;;;;17.85;4.25;;;;;;;;;;5011675;28;20061;-72
2022/10/06 06:04:55;;;;;;;10.52;4.07;;;;;;;;;;5011536;28;20028;-72
2022/10/06 06:07:20;;;;;;;18.40;4.50;;;;;;;;;;5013271;28;20017;-72
2022/10/06 06:09:46;;;;;;;15.70;4.18;;;;;;;;;;5014176;28;20386;-72
2022/10/06 06:12:11;;;;;;;13.68;4.45;;;;;;;;;;5017627;28;20032;-72
2022/10/06 06:17:20;;;;;;;25.58;4.75;;;;;;;;;;5012077;28;20044;-73
2022/10/06 06:19:46;;;;;;;15.23;3.90;;;;;;;;;;4990729;28;20234;-73
2022/10/06 06:22:11;;;;;;;16.48;4.50;;;;;;;;;;5014135;28;21165;-72
2022/10/06 06:24:36;;;;;;;17.55;4.60;;;;;;;;;;5014312;28;20188;-73
2022/10/06 06:27:01;;;;;;;12.15;4.05;;;;;;;;;;5013129;28;20116;-73
2022/10/06 06:29:26;;;;;;;17.80;5.30;;;;;;;;;;5011645;28;20021;-73
2022/10/06 06:31:52;;;;;;;9.93;3.90;;;;;;;;;;5017048;28;20266;-72
2022/10/06 06:34:17;;;;;;;22.00;4.75;;;;;;;;;;5011100;28;20272;-72
2022/10/06 06:36:45;;;;;;;21.23;4.65;;;;;;;;;;5016618;28;20073;-73
2022/10/06 06:39:14;;;;;;;18.88;4.78;;;;;;;;;;5008718;28;20032;-73
2022/10/06 06:41:40;;;;;;;17.35;5.22;;;;;;;;;;5013660;28;20865;-73
2022/10/06 06:44:12;;;;;;;18.23;4.55;;;;;;;;;;5012145;28;20044;-72
2022/10/06 06:46:38;;;;;;;17.02;5.57;;;;;;;;;;5008770;28;20028;-73
2022/10/06 06:49:04;;;;;;;16.00;5.03;;;;;;;;;;5008750;28;20128;-72
2022/10/06 06:51:39;;;;;;;15.07;4.80;;;;;;;;;;5008578;28;20775;-73
2022/10/06 06:54:04;;;;;;;21.52;5.43;;;;;;;;;;5010132;28;20020;-73
2022/10/06 06:56:33;;;;;;;14.75;4.25;;;;;;;;;;5026768;28;20024;-73
2022/10/06 06:58:59;;;;;;;13.75;4.20;;;;;;;;;;5010032;28;20025;-72
2022/10/06 07:01:24;;;;;;;16.50;5.78;;;;;;;;;;5009791;28;20024;-72
2022/10/06 07:03:53;;;;;;;23.63;4.63;;;;;;;;;;5010546;28;20876;-72
2022/10/06 07:06:19;;;;;;;16.85;5.80;;;;;;;;;;4992447;28;20310;-73
2022/10/06 07:08:45;;;;;;;11.60;4.78;;;;;;;;;;5013058;28;20021;-73
2022/10/06 07:11:15;;;;;;;12.15;5.38;;;;;;;;;;5009716;28;20055;-73
2022/10/06 07:13:41;;;;;;;10.98;3.60;;;;;;;;;;5014595;28;20013;-73
2022/10/06 07:27:04;;;;;;;11.50;4.72;;;;;;;;;;5003407;28;20044;-72
2022/10/06 07:29:29;;;;;;;25.10;5.15;;;;;;;;;;5010008;28;20025;-72
2022/10/06 07:31:55;;;;;;;23.50;4.85;;;;;;;;;;5010747;28;20012;-72
2022/10/06 07:34:21;;;;;;;16.10;4.85;;;;;;;;;;5009135;28;20078;-72
2022/10/06 07:36:47;;;;;;;16.27;4.60;;;;;;;;;;5024088;28;20029;-72
2022/10/06 07:39:13;;;;;;;17.88;5.60;;;;;;;;;;5011898;28;20020;-72
2022/10/06 07:41:38;;;;;;;13.40;5.00;;;;;;;;;;5002830;28;20021;-72
2022/10/06 07:44:04;;;;;;;12.32;4.88;;;;;;;;;;5008882;28;20025;-72
2022/10/06 07:46:29;;;;;;;10.90;4.25;;;;;;;;;;5009948;28;20610;-72
2022/10/06 07:48:54;;;;;;;16.98;4.15;;;;;;;;;;5007963;28;20071;-73
2022/10/06 07:51:20;;;;;;;13.80;4.73;;;;;;;;;;5023635;28;20088;-72
2022/10/06 07:53:52;;;;;;;15.60;3.60;;;;;;;;;;5010021;28;20255;-73
2022/10/06 07:56:19;;;;;;;13.18;4.63;;;;;;;;;;5015331;28;20044;-72
2022/10/06 07:58:44;;;;;;;15.15;4.30;;;;;;;;;;5011581;28;20028;-71
2022/10/06 08:01:12;;;;;;;9.77;4.25;;;;;;;;;;5012836;28;20154;-72
2022/10/06 08:03:37;;;;;;;10.27;3.92;;;;;;;;;;5005242;28;20041;-73
2022/10/06 08:06:03;;;;;;;22.73;4.63;;;;;;;;;;5009883;28;20853;-73
2022/10/06 08:08:32;;;;;;;10.82;4.30;;;;;;;;;;5017686;28;20180;-73
2022/10/06 08:10:58;;;;;;;17.85;5.15;;;;;;;;;;5007965;28;20013;-73
2022/10/06 08:13:23;;;;;;;14.82;5.07;;;;;;;;;;5004642;28;20021;-73
2022/10/06 08:15:50;;;;;;;22.10;4.50;;;;;;;;;;5012146;28;20130;-73
2022/10/06 08:18:15;;;;;;;20.60;5.22;;;;;;;;;;5012015;28;20017;-73
2022/10/06 08:20:41;;;;;;;16.65;4.53;;;;;;;;;;5011810;28;20024;-73
2022/10/06 08:23:07;;;;;;;11.68;3.42;;;;;;;;;;4984541;28;20021;-73
2022/10/06 08:25:35;;;;;;;10.75;4.07;;;;;;;;;;4995425;28;20884;-73
2022/10/06 08:28:00;;;;;;;15.77;4.88;;;;;;;;;;5010161;28;20017;-74
2022/10/06 08:30:25;;;;;;;14.55;3.83;;;;;;;;;;5011542;28;20017;-73
2022/10/06 08:32:51;;;;;;;16.87;4.73;;;;;;;;;;5011604;28;20017;-72
2022/10/06 08:35:16;;;;;;;8.30;4.07;;;;;;;;;;5012348;28;20301;-72
2022/10/06 08:37:42;;;;;;;14.00;4.35;;;;;;;;;;5012637;28;20885;-73
2022/10/06 08:40:11;;;;;;;10.32;4.25;;;;;;;;;;5011047;28;20021;-73
2022/10/06 08:42:41;;;;;;;14.40;4.32;;;;;;;;;;5012167;28;20025;-74
2022/10/06 08:45:10;;;;;;;20.13;4.55;;;;;;;;;;5011843;28;20028;-73
2022/10/06 08:47:36;;;;;;;22.40;4.95;;;;;;;;;;5011469;28;20087;-73
2022/10/06 08:50:03;;;;;;;16.10;5.20;;;;;;;;;;4994983;28;20072;-73
2022/10/06 08:52:29;;;;;;;14.05;4.00;;;;;;;;;;5036914;28;20033;-73
2022/10/06 08:55:06;;;;;;;13.80;4.45;;;;;;;;;;5039249;28;20379;-72
2022/10/06 08:57:37;;;;;;;8.95;3.90;;;;;;;;;;5043985;28;20103;-73
2022/10/06 09:00:02;;;;;;;14.85;3.90;;;;;;;;;;5041843;28;20040;-72
2022/10/06 09:02:30;;;;;;;13.30;4.40;;;;;;;;;;5034079;28;20037;-70
2022/10/06 09:04:57;;;;;;;9.38;4.03;;;;;;;;;;5041118;28;20805;-71
2022/10/06 09:07:28;;;;;;;13.45;4.45;;;;;;;;;;5037445;28;20135;-71
2022/10/06 09:10:12;;;;;;;11.07;4.90;;;;;;;;;;5041593;28;20027;-71
2022/10/06 09:13:03;;;;;;;12.45;4.38;;;;;;;;;;5038478;28;20095;-71
2022/10/06 09:15:32;;;;;;;12.45;3.83;;;;;;;;;;5002876;28;20471;-71
2022/10/06 09:18:07;;;;;;;15.85;4.53;;;;;;;;;;5037845;28;20018;-72
2022/10/06 09:20:38;;;;;;;8.00;3.70;;;;;;;;;;5043119;28;20577;-73
2022/10/06 09:23:05;;;;;;;9.65;3.72;;;;;;;;;;5049280;28;20291;-72
2022/10/06 09:25:31;;;;;;;14.20;3.30;;;;;;;;;;5025663;28;20017;-73
2022/10/06 09:27:58;;;;;;;8.40;3.55;;;;;;;;;;5040473;28;20443;-73
2022/10/06 09:30:24;;;;;;;9.27;4.05;;;;;;;;;;5027447;28;20123;-73
2022/10/06 09:32:54;;;;;;;10.75;3.25;;;;;;;;;;5045301;28;20025;-73
2022/10/06 09:35:21;;;;;;;19.52;3.65;;;;;;;;;;5039597;28;20017;-75
2022/10/06 09:37:55;;;;;;;10.27;3.28;;;;;;;;;;5042520;28;20028;-74
2022/10/06 09:40:33;;;;;;;13.35;3.92;;;;;;;;;;5039289;28;20071;-73
2022/10/06 09:42:59;;;;;;;15.65;4.30;;;;;;;;;;5040357;28;20060;-73
2022/10/06 09:45:25;;;;;;;9.77;3.38;;;;;;;;;;5041575;28;20104;-75
2022/10/06 09:47:50;;;;;;;14.63;4.00;;;;;;;;;;5042992;28;20017;-72
2022/10/06 09:50:26;;;;;;;8.83;3.67;;;;;;;;;;5051338;28;20032;-72
2022/10/06 09:53:02;;;;;;;12.20;3.72;;;;;;;;;;5034678;28;20339;-72
2022/10/06 09:55:29;;;;;;;11.27;4.07;;;;;;;;;;5041808;28;20017;-72
2022/10/06 09:57:56;;;;;;;6.78;3.55;;;;;;;;;;5039907;28;20031;-73
2022/10/06 10:00:25;;;;;;;11.48;3.47;;;;;;;;;;5040734;28;20035;-73
2022/10/06 10:02:55;;;;;;;5.97;3.22;;;;;;;;;;5042104;28;20029;-73
2022/10/06 10:05:21;;;;;;;17.73;3.72;;;;;;;;;;5038977;28;20045;-72
2022/10/06 10:07:59;;;;;;;8.85;3.55;;;;;;;;;;5028162;28;20582;-72
2022/10/06 10:10:24;;;;;;;8.43;3.45;;;;;;;;;;5030426;28;20060;-72
2022/10/06 10:12:57;;;;;;;8.38;3.05;;;;;;;;;;5043517;28;20028;-73
2022/10/06 10:15:28;;;;;;;12.52;3.53;;;;;;;;;;5044476;28;20036;-72
2022/10/06 10:17:55;;;;;;;11.65;3.92;;;;;;;;;;5047525;28;20032;-73
2022/10/06 10:20:23;;;;;;;10.18;3.58;;;;;;;;;;5041778;28;20112;-72
2022/10/06 10:22:49;;;;;;;7.60;3.30;;;;;;;;;;5041257;28;20025;-72
2022/10/06 10:25:33;;;;;;;6.75;3.10;;;;;;;;;;5041701;28;20024;-73
2022/10/06 10:28:03;;;;;;;8.18;3.30;;;;;;;;;;5056620;28;20020;-73
2022/10/06 10:30:31;;;;;;;17.38;3.20;;;;;;;;;;5055157;28;20475;-73
2022/10/06 10:32:56;;;;;;;9.32;2.60;;;;;;;;;;5046052;28;20479;-73
2022/10/06 10:35:26;;;;;;;7.97;3.07;;;;;;;;;;5025569;28;20037;-73
2022/10/06 10:37:54;;;;;;;11.80;3.45;;;;;;;;;;5042437;28;20060;-72
2022/10/06 10:40:19;;;;;;;7.75;2.63;;;;;;;;;;5043548;28;20882;-72
2022/10/06 10:42:48;;;;;;;10.97;2.80;;;;;;;;;;5044614;28;20037;-72
2022/10/06 10:45:17;;;;;;;6.65;2.50;;;;;;;;;;5040307;28;20032;-72
2022/10/06 10:47:44;;;;;;;6.78;2.53;;;;;;;;;;5045114;28;20020;-74
2022/10/06 10:50:12;;;;;;;9.73;2.67;;;;;;;;;;5045791;28;20035;-70
2022/10/06 10:52:40;;;;;;;10.60;2.65;;;;;;;;;;5025985;28;20158;-73
2022/10/06 10:55:10;;;;;;;5.72;2.45;;;;;;;;;;5038672;28;20546;-73
2022/10/06 10:57:38;;;;;;;5.80;2.13;;;;;;;;;;5025505;28;20016;-78
2022/10/06 11:00:10;;;;;;;5.93;1.55;;;;;;;;;;5029248;28;20099;-73
2022/10/06 11:02:37;;;;;;;5.80;2.33;;;;;;;;;;5040142;28;20045;-73
2022/10/06 11:05:15;;;;;;;8.25;2.17;;;;;;;;;;5052885;28;20020;-73
2022/10/06 11:07:52;;;;;;;9.57;2.65;;;;;;;;;;5049663;28;20025;-72
2022/10/06 11:10:23;;;;;;;5.80;2.17;;;;;;;;;;5055384;28;20491;-73
2022/10/06 11:12:48;;;;;;;5.38;2.05;;;;;;;;;;5057974;28;20041;-72
2022/10/06 11:15:31;;;;;;;7.23;2.33;;;;;;;;;;5045549;28;20127;-73
2022/10/06 11:18:01;;;;;;;6.53;1.80;;;;;;;;;;5041533;28;20021;-74
2022/10/06 11:20:30;;;;;;;4.82;1.70;;;;;;;;;;5024392;28;20028;-73
2022/10/06 11:23:07;;;;;;;7.28;2.35;;;;;;;;;;5028781;28;20039;-73
2022/10/06 11:25:33;;;;;;;6.28;2.97;;;;;;;;;;5041660;28;20087;-74
2022/10/06 11:28:19;;;;;;;5.80;2.50;;;;;;;;;;5035968;28;20024;-74
2022/10/06 11:30:47;;;;;;;4.30;1.83;;;;;;;;;;5024479;28;20814;-72
2022/10/06 11:33:18;;;;;;;9.25;3.08;;;;;;;;;;5007913;28;20028;-73
2022/10/06 11:35:44;;;;;;;3.85;2.13;;;;;;;;;;5039566;28;20036;-73
2022/10/06 11:38:28;;;;;;;7.03;2.47;;;;;;;;;;5018471;28;20075;-74
2022/10/06 11:40:59;;;;;;;10.23;2.72;;;;;;;;;;5025936;28;20049;-72
2022/10/06 11:43:27;;;;;;;4.05;2.10;;;;;;;;;;5039049;28;20083;-71
2022/10/06 11:46:01;;;;;;;3.47;1.55;;;;;;;;;;5042709;28;20013;-74
2022/10/06 11:48:28;;;;;;;6.22;2.00;;;;;;;;;;5042480;28;20051;-74
2022/10/06 11:50:54;;;;;;;8.00;2.15;;;;;;;;;;5028551;28;20021;-74
2022/10/06 11:53:33;;;;;;;7.25;2.20;;;;;;;;;;5038503;28;20021;-71
2022/10/06 11:56:25;;;;;;;4.80;2.00;;;;;;;;;;5058660;28;20024;-70
2022/10/06 11:58:50;;;;;;;6.05;2.15;;;;;;;;;;5027114;28;20036;-73
2022/10/06 12:01:31;;;;;;;14.75;2.75;;;;;;;;;;5045214;28;20017;-76
2022/10/06 12:04:04;;;;;;;8.02;2.45;;;;;;;;;;5045535;28;20068;-74
2022/10/06 12:06:42;;;;;;;4.32;2.10;;;;;;;;;;5024243;28;20021;-74
2022/10/06 12:09:33;;;;;;;10.52;2.30;;;;;;;;;;5056136;28;20075;-74
2022/10/06 12:12:14;;;;;;;7.65;2.55;;;;;;;;;;5055849;28;20025;-74
2022/10/06 12:14:54;;;;;;;8.13;2.83;;;;;;;;;;5026010;28;20028;-74
2022/10/06 12:17:43;;;;;;;12.07;3.28;;;;;;;;;;5060177;28;20116;-75
2022/10/06 12:20:08;;;;;;;7.13;2.40;;;;;;;;;;5033333;28;20044;-73
2022/10/06 12:22:49;;;;;;;5.10;2.20;;;;;;;;;;5050951;28;20098;-73
2022/10/06 12:25:17;;;;;;;10.27;2.72;;;;;;;;;;5043360;28;20028;-75
2022/10/06 12:27:57;;;;;;;5.78;2.35;;;;;;;;;;5044509;28;20075;-76
2022/10/06 12:30:28;;;;;;;6.75;2.40;;;;;;;;;;5030674;28;20051;-73
2022/10/06 12:32:55;;;;;;;6.70;1.90;;;;;;;;;;5059611;28;20025;-74
2022/10/06 12:35:23;;;;;;;6.15;2.35;;;;;;;;;;5034112;28;20027;-75
2022/10/06 12:37:51;;;;;;;5.13;2.50;;;;;;;;;;5037990;28;20064;-74
2022/10/06 12:40:36;;;;;;;6.43;2.08;;;;;;;;;;5015533;28;20048;-74
2022/10/06 12:43:13;;;;;;;5.70;2.28;;;;;;;;;;5018387;28;20080;-74
2022/10/06 12:45:41;;;;;;;6.50;2.05;;;;;;;;;;5036596;28;20025;-74
2022/10/06 12:48:13;;;;;;;10.50;2.72;;;;;;;;;;5018221;28;20133;-75
2022/10/06 12:50:41;;;;;;;10.75;2.53;;;;;;;;;;5025938;28;20846;-75
2022/10/06 12:53:11;;;;;;;9.32;2.38;;;;;;;;;;5034851;28;20060;-77
2022/10/06 12:55:40;;;;;;;5.70;2.10;;;;;;;;;;5027102;28;20102;-73
2022/10/06 12:58:15;;;;;;;9.95;2.00;;;;;;;;;;5024671;28;20036;-74
2022/10/06 13:00:41;;;;;;;10.25;2.88;;;;;;;;;;5038858;28;20079;-74
2022/10/06 13:03:14;;;;;;;6.55;1.92;;;;;;;;;;5032837;28;20112;-74
2022/10/06 13:05:39;;;;;;;4.85;2.03;;;;;;;;;;5029405;28;20032;-74
2022/10/06 13:08:05;;;;;;;5.00;2.03;;;;;;;;;;5029784;28;21546;-74
2022/10/06 13:10:31;;;;;;;7.25;1.95;;;;;;;;;;5011335;28;20307;-74
2022/10/06 13:12:57;;;;;;;5.07;2.15;;;;;;;;;;5028572;28;20028;-74
2022/10/06 13:15:26;;;;;;;7.40;2.00;;;;;;;;;;5009738;28;20029;-75
2022/10/06 13:17:53;;;;;;;4.07;1.73;;;;;;;;;;5005309;28;20922;-73
2022/10/06 13:20:19;;;;;;;5.50;2.00;;;;;;;;;;5029514;28;20024;-75
2022/10/06 13:22:44;;;;;;;4.30;1.65;;;;;;;;;;5050803;28;20415;-74
2022/10/06 13:25:15;;;;;;;13.27;1.70;;;;;;;;;;5012442;28;20032;-75
2022/10/06 13:27:47;;;;;;;9.40;1.92;;;;;;;;;;5006946;28;20081;-75
2022/10/06 13:30:17;;;;;;;7.18;1.42;;;;;;;;;;5039880;28;20025;-75
2022/10/06 13:32:42;;;;;;;3.75;1.38;;;;;;;;;;5009276;28;20873;-74
2022/10/06 13:35:10;;;;;;;5.43;1.73;;;;;;;;;;5020599;28;20022;-72
2022/10/06 13:37:36;;;;;;;6.28;2.15;;;;;;;;;;5037204;28;20052;-77
2022/10/06 13:40:01;;;;;;;9.07;2.20;;;;;;;;;;5033464;28;20155;-73
2022/10/06 13:42:26;;;;;;;5.13;1.30;;;;;;;;;;5032003;28;20053;-79
2022/10/06 13:44:56;;;;;;;4.70;1.67;;;;;;;;;;5012170;28;20283;-82
2022/10/06 13:47:23;;;;;;;5.43;1.77;;;;;;;;;;4999368;28;20028;-77
2022/10/06 13:49:54;;;;;;;4.88;2.15;;;;;;;;;;5012764;28;20127;-72
2022/10/06 13:52:39;;;;;;;6.05;1.83;;;;;;;;;;5030922;28;20077;-76
2022/10/06 13:55:13;;;;;;;5.78;1.85;;;;;;;;;;5034720;28;20025;-74
2022/10/06 13:57:43;;;;;;;6.32;2.25;;;;;;;;;;5014804;28;20054;-75
2022/10/06 14:00:40;;;;;;;5.30;1.92;;;;;;;;;;5022939;28;20087;-73
2022/10/06 14:03:06;;;;;;;4.20;2.20;;;;;;;;;;4995700;28;20140;-76
2022/10/06 14:05:41;;;;;;;4.20;1.70;;;;;;;;;;5045042;28;20029;-76
2022/10/06 14:08:10;;;;;;;6.78;2.65;;;;;;;;;;5036570;28;20116;-78
2022/10/06 14:10:49;;;;;;;9.60;2.83;;;;;;;;;;5047342;28;20020;-75
2022/10/06 14:13:16;;;;;;;4.07;1.77;;;;;;;;;;5031503;28;20114;-76
2022/10/06 14:15:48;;;;;;;4.50;2.22;;;;;;;;;;5026236;28;20017;-74
2022/10/06 14:18:22;;;;;;;5.40;1.92;;;;;;;;;;5002078;28;20083;-76
2022/10/06 14:20:48;;;;;;;8.27;2.45;;;;;;;;;;5000317;28;20021;-77
2022/10/06 14:23:32;;;;;;;5.93;1.88;;;;;;;;;;5028111;28;20040;-75
2022/10/06 14:25:58;;;;;;;4.03;1.40;;;;;;;;;;5042208;28;20031;-75
2022/10/06 14:28:23;;;;;;;7.43;1.90;;;;;;;;;;5007852;28;20021;-74
2022/10/06 14:30:48;;;;;;;4.77;1.60;;;;;;;;;;5033668;28;20837;-74
2022/10/06 14:33:15;;;;;;;4.57;1.67;;;;;;;;;;5043932;28;20564;-74
2022/10/06 14:35:40;;;;;;;5.07;2.10;;;;;;;;;;5052301;28;20039;-77
2022/10/06 14:38:05;;;;;;;5.03;1.80;;;;;;;;;;5065533;28;20479;-75
2022/10/06 14:40:31;;;;;;;4.53;2.00;;;;;;;;;;5028752;28;20100;-75
2022/10/06 14:42:56;;;;;;;5.28;2.53;;;;;;;;;;5046380;28;20284;-75
2022/10/06 14:45:21;;;;;;;6.63;2.20;;;;;;;;;;5070651;28;20056;-74
2022/10/06 14:47:46;;;;;;;7.57;2.20;;;;;;;;;;5039098;28;20279;-75
2022/10/06 14:50:12;;;;;;;6.97;2.27;;;;;;;;;;5046109;28;20527;-75
2022/10/06 14:52:38;;;;;;;8.07;2.00;;;;;;;;;;5047909;28;20264;-75
2022/10/06 14:55:04;;;;;;;6.90;2.40;;;;;;;;;;5067890;28;20277;-75